KPRC/PRC METAR and TAF weather

Enter ICAO airport designator
Station Type Date Time Source
KPRC METAR 2019/02/18 04:01 UTC NOAA

KPRC 180401Z 12006KT 3SM -SN FEW009 BKN029 OVC100 M01/M03 A2985 RMK AO2 P0000 T10061033


Station Type Date Time Source
KPRC Decoded METAR 2019/02/18 04:01 UTC NOAA

PRESCOTT LOVE FIELD, AZ, United States (KPRC) 34-39N 112-25W 1524M
Feb 17, 2019 - 11:01 PM EST / 2019.02.18 0401 UTC
Wind: from the ESE (120 degrees) at 7 MPH (6 KT):0
Visibility: 3 mile(s):0
Sky conditions: overcast
Weather: light snow
Precipitation last hour: A trace
Temperature: 30.9 F (-0.6 C)
Windchill: 24 F (-4 C):1
Dew Point: 26.1 F (-3.3 C)
Relative Humidity: 81%
Pressure (altimeter): 29.85 in. Hg (1010 hPa)
ob: KPRC 180401Z 12006KT 3SM -SN FEW009 BKN029 OVC100 M01/M03 A2985 RMK AO2 P0000 T10061033
cycle: 4

Station Type Date Time Source
KPRC TAF 2019/02/17 22:58 UTC NOAA

TAF
AMD KPRC 172157Z 1722/1818 23010G22KT P6SM -SN SCT035 BKN050
FM180200 21010KT 6SM -SHRASN FEW015 OVC025
FM180800 21011KT 3SM -SHSN BR OVC010


Example: see airport list